Terminal Aerodrome Forecast
Issued by NWS

Home | Current Version | Previous Version | Text Only | Print | Product List | Glossary On
Versions: 1 2 3 4 5 6 7 8 9 10 11 12 13 14 15 16 17 18 19 20 21 22 23
615
FTUS43 KDLH 262027 AAB
TAFHIB
TAF AMD
KHIB 262027Z 2620/2718 19012KT P6SM TSRAGR BKN045CB
      TEMPO 2620/2621 3/4SM +TSRA
     FM262130 25010KT P6SM VCSH BKN060
     FM270200 27007KT P6SM SCT050
     FM270800 VRB03KT P6SM SCT150=

USA.gov is the U.S. government's official web portal to all federal, state and local government web resources and services.